createdAt,value
2019-03-29T04:02:19.029Z,6.90
2019-03-29T04:04:48.127Z,6.90
2019-03-29T04:07:17.967Z,6.90
2019-03-29T04:09:50.227Z,6.80
2019-03-29T04:12:18.266Z,6.80
2019-03-29T04:14:47.653Z,6.80
2019-03-29T04:17:16.762Z,6.70
2019-03-29T04:19:46.340Z,6.70
2019-03-29T04:22:15.435Z,6.70
2019-03-29T04:24:44.934Z,6.70
2019-03-29T04:27:14.026Z,6.70
2019-03-29T04:29:43.124Z,6.70
2019-03-29T04:32:12.715Z,6.70
2019-03-29T04:34:41.870Z,6.60
2019-03-29T04:37:10.970Z,6.60
2019-03-29T04:39:40.147Z,6.50
2019-03-29T04:42:09.436Z,6.50
2019-03-29T04:44:38.751Z,6.50
2019-03-29T04:47:07.984Z,6.50
2019-03-29T04:49:37.143Z,6.50
2019-03-29T04:52:06.243Z,6.50
2019-03-29T04:54:35.699Z,6.50
2019-03-29T04:57:04.798Z,6.30
2019-03-29T04:59:34.214Z,6.30
2019-03-29T05:02:03.333Z,6.40
2019-03-29T05:04:32.536Z,6.30
2019-03-29T05:07:01.634Z,6.30
2019-03-29T05:09:30.762Z,6.40
2019-03-29T05:11:59.859Z,6.40
2019-03-29T05:14:28.988Z,6.30
2019-03-29T05:16:58.203Z,6.30
2019-03-29T05:19:27.323Z,6.30
2019-03-29T05:21:56.572Z,6.20
2019-03-29T05:24:25.981Z,6.30
2019-03-29T05:26:55.066Z,6.40
2019-03-29T05:29:24.170Z,6.40
2019-03-29T05:31:53.760Z,6.40
2019-03-29T05:34:23.418Z,6.50
2019-03-29T05:36:52.514Z,6.50
2019-03-29T05:39:21.655Z,6.50
2019-03-29T05:41:50.766Z,6.60
2019-03-29T05:44:19.872Z,6.60
2019-03-29T05:46:48.982Z,6.70
2019-03-29T05:49:18.081Z,6.80
2019-03-29T05:51:47.250Z,6.80
2019-03-29T05:54:16.380Z,6.90
2019-03-29T05:56:46.405Z,7.00
2019-03-29T05:59:15.888Z,7.10
2019-03-29T06:01:45.280Z,7.20
2019-03-29T06:04:14.370Z,7.30
2019-03-29T06:06:43.595Z,7.40
2019-03-29T06:09:12.739Z,7.50
2019-03-29T06:11:41.866Z,7.60
2019-03-29T06:14:10.961Z,7.80
2019-03-29T06:16:40.186Z,7.90
2019-03-29T06:19:09.303Z,7.90
2019-03-29T06:21:38.399Z,8.10
2019-03-29T06:24:07.557Z,8.30
2019-03-29T06:26:36.654Z,8.40
2019-03-29T06:29:05.751Z,8.50
2019-03-29T06:31:35.230Z,8.60
2019-03-29T06:34:04.382Z,8.60
2019-03-29T06:36:33.518Z,8.70
2019-03-29T06:39:03.504Z,8.80
2019-03-29T06:41:32.675Z,8.90
2019-03-29T06:44:01.842Z,8.90
2019-03-29T06:46:31.033Z,9.10
2019-03-29T06:49:00.226Z,9.20
2019-03-29T06:51:29.328Z,9.30
2019-03-29T06:53:58.446Z,9.40
2019-03-29T06:56:27.538Z,9.40
2019-03-29T06:58:56.639Z,9.60
2019-03-29T07:01:25.754Z,9.80
2019-03-29T07:03:54.879Z,10.00
2019-03-29T07:06:24.002Z,10.10
2019-03-29T07:08:53.429Z,10.40
2019-03-29T07:11:22.843Z,10.70
2019-03-29T07:13:57.839Z,11.30
2019-03-29T07:16:22.870Z,12.20
2019-03-29T07:18:51.978Z,13.00
2019-03-29T07:21:22.111Z,13.70
2019-03-29T07:23:51.467Z,14.20
2019-03-29T07:26:20.558Z,14.60
2019-03-29T07:28:49.666Z,15.00
2019-03-29T07:31:18.778Z,15.50
2019-03-29T07:33:47.882Z,16.10
2019-03-29T07:36:16.976Z,16.50
2019-03-29T07:38:46.102Z,16.80
2019-03-29T07:41:15.199Z,16.90
2019-03-29T07:43:44.322Z,16.80
2019-03-29T07:46:13.450Z,16.80
2019-03-29T07:48:42.550Z,17.40
2019-03-29T07:51:11.986Z,17.40
2019-03-29T07:53:41.121Z,17.40
2019-03-29T07:56:10.214Z,17.40
2019-03-29T07:58:39.315Z,17.80
2019-03-29T08:01:08.744Z,17.60
2019-03-29T08:03:37.838Z,17.50
2019-03-29T08:06:07.194Z,17.80
2019-03-29T08:08:36.333Z,17.90
2019-03-29T08:11:05.778Z,18.60
2019-03-29T08:13:34.950Z,19.90
2019-03-29T08:16:06.638Z,19.70
2019-03-29T08:18:34.903Z,19.60
2019-03-29T08:21:04.010Z,20.40
2019-03-29T08:23:33.131Z,21.60
2019-03-29T08:26:02.231Z,22.50
2019-03-29T08:28:31.332Z,23.00
2019-03-29T08:31:00.762Z,23.90
2019-03-29T08:33:29.862Z,23.40
2019-03-29T08:35:58.960Z,23.10
2019-03-29T08:38:28.132Z,23.80
2019-03-29T08:40:57.238Z,23.80
2019-03-29T08:43:26.379Z,23.80
2019-03-29T08:45:57.664Z,23.00
2019-03-29T08:48:26.427Z,22.10
2019-03-29T08:50:55.527Z,22.60
2019-03-29T08:53:27.269Z,23.00
2019-03-29T08:55:55.519Z,23.50
2019-03-29T08:58:24.614Z,24.20
2019-03-29T09:00:53.755Z,24.80
2019-03-29T09:03:22.890Z,25.60
2019-03-29T09:05:52.364Z,25.60
2019-03-29T09:08:21.477Z,26.20
2019-03-29T09:10:50.593Z,26.80
2019-03-29T09:13:19.710Z,26.50
2019-03-29T09:15:48.831Z,26.80
2019-03-29T09:18:18.305Z,27.10
2019-03-29T09:20:47.478Z,27.00
2019-03-29T09:23:16.673Z,26.00
2019-03-29T09:25:45.772Z,26.00
2019-03-29T09:28:14.863Z,26.00
2019-03-29T09:30:43.982Z,26.50
2019-03-29T09:33:13.180Z,26.80
2019-03-29T09:35:43.009Z,26.10
2019-03-29T09:38:12.351Z,26.00
2019-03-29T09:40:41.479Z,26.00
2019-03-29T09:43:10.582Z,25.70
2019-03-29T09:45:41.242Z,26.40
2019-03-29T09:48:10.394Z,26.20
2019-03-29T09:50:39.486Z,26.10
2019-03-29T09:53:08.954Z,26.30
2019-03-29T09:55:38.075Z,26.00
2019-03-29T09:58:07.191Z,24.70
2019-03-29T10:00:36.281Z,24.10
2019-03-29T10:03:05.722Z,24.40
2019-03-29T10:05:34.854Z,24.80
2019-03-29T10:08:03.981Z,25.50
2019-03-29T10:10:34.685Z,25.90
2019-03-29T10:13:04.062Z,26.90
2019-03-29T10:15:33.171Z,28.20
2019-03-29T10:18:02.324Z,28.40
2019-03-29T10:20:31.418Z,28.90
2019-03-29T10:23:00.537Z,28.90
2019-03-29T10:25:29.653Z,29.60
2019-03-29T10:27:58.790Z,29.60
2019-03-29T10:30:38.478Z,29.20
2019-03-29T10:33:07.602Z,28.50
2019-03-29T10:35:50.933Z,28.30
2019-03-29T10:38:07.651Z,28.40
2019-03-29T10:40:36.744Z,27.60
2019-03-29T10:43:05.842Z,28.10
2019-03-29T10:45:39.826Z,28.10
2019-03-29T10:48:06.047Z,28.00
2019-03-29T10:50:35.139Z,29.30
2019-03-29T10:53:04.270Z,28.40
2019-03-29T10:55:33.362Z,26.60
2019-03-29T10:58:02.481Z,27.10
2019-03-29T11:00:35.906Z,28.00
2019-03-29T11:03:05.507Z,27.80
2019-03-29T11:05:34.607Z,26.80
2019-03-29T11:08:04.374Z,26.70
2019-03-29T11:10:34.546Z,26.00
2019-03-29T11:13:12.376Z,25.90
2019-03-29T11:15:34.865Z,26.80
2019-03-29T11:18:05.874Z,27.00
2019-03-29T11:20:35.334Z,27.60
2019-03-29T11:23:04.541Z,27.10
2019-03-29T11:25:33.638Z,26.40
2019-03-29T11:28:02.729Z,26.20
2019-03-29T11:30:42.205Z,26.30
2019-03-29T11:33:02.672Z,26.00
2019-03-29T11:35:31.762Z,25.50
2019-03-29T11:38:01.024Z,25.70
2019-03-29T11:40:30.129Z,26.00
2019-03-29T11:42:59.255Z,26.50
2019-03-29T11:45:28.378Z,26.60
2019-03-29T11:48:08.353Z,26.70
2019-03-29T11:50:29.258Z,26.90
2019-03-29T11:52:58.515Z,27.10
2019-03-29T11:55:27.628Z,27.30
2019-03-29T11:57:56.810Z,28.00
2019-03-29T12:00:34.362Z,28.00
2019-03-29T12:03:03.635Z,28.10
2019-03-29T12:05:36.090Z,27.80
2019-03-29T12:08:03.906Z,28.40
2019-03-29T12:10:33.015Z,28.70
2019-03-29T12:13:02.123Z,29.20
2019-03-29T12:15:31.266Z,29.30
2019-03-29T12:18:00.678Z,29.50
2019-03-29T12:20:29.855Z,30.10
2019-03-29T12:22:58.990Z,29.50
2019-03-29T12:25:28.091Z,28.10
2019-03-29T12:27:57.690Z,27.90
2019-03-29T12:30:31.702Z,27.60
2019-03-29T12:32:57.626Z,28.00
2019-03-29T12:35:26.730Z,27.30
2019-03-29T12:37:56.314Z,26.70
2019-03-29T12:40:25.414Z,26.50
2019-03-29T12:42:54.515Z,27.20
2019-03-29T12:45:24.006Z,27.50
2019-03-29T12:47:53.112Z,27.50
2019-03-29T12:50:22.246Z,27.20
2019-03-29T12:52:51.414Z,27.00
2019-03-29T12:55:20.517Z,26.70
2019-03-29T12:57:49.778Z,26.50
2019-03-29T13:00:19.081Z,26.20
2019-03-29T13:02:48.290Z,25.90
2019-03-29T13:05:17.396Z,25.50
2019-03-29T13:07:46.551Z,25.50
2019-03-29T13:10:15.830Z,25.70
2019-03-29T13:12:45.294Z,25.70
2019-03-29T13:15:14.552Z,25.30
2019-03-29T13:17:43.654Z,26.00
2019-03-29T13:20:12.859Z,26.40
2019-03-29T13:22:41.987Z,26.90
2019-03-29T13:25:11.098Z,27.60
2019-03-29T13:27:40.205Z,27.40
2019-03-29T13:30:09.859Z,27.20
2019-03-29T13:32:38.955Z,27.60
2019-03-29T13:35:08.226Z,27.30
2019-03-29T13:37:37.455Z,26.70
2019-03-29T13:40:07.842Z,26.30
2019-03-29T13:42:36.947Z,26.30
2019-03-29T13:45:08.061Z,26.10
2019-03-29T13:47:37.451Z,26.10
2019-03-29T13:50:07.133Z,26.40
2019-03-29T13:52:36.339Z,25.50
2019-03-29T13:55:05.788Z,25.00
2019-03-29T13:57:34.950Z,24.70
2019-03-29T14:00:05.861Z,24.30
2019-03-29T14:02:34.955Z,23.70
2019-03-29T14:05:04.082Z,23.50
2019-03-29T14:07:33.206Z,23.30
2019-03-29T14:10:02.350Z,22.90
2019-03-29T14:12:31.511Z,22.40
2019-03-29T14:15:01.429Z,21.90
2019-03-29T14:17:31.230Z,21.40
2019-03-29T14:20:00.394Z,21.00
2019-03-29T14:22:29.522Z,20.70
2019-03-29T14:24:58.651Z,20.70
2019-03-29T14:27:27.740Z,20.20
2019-03-29T14:30:04.033Z,19.90
2019-03-29T14:32:27.763Z,19.30
2019-03-29T14:34:57.222Z,19.10
2019-03-29T14:37:26.378Z,18.90
2019-03-29T14:39:55.554Z,18.70
2019-03-29T14:42:24.675Z,18.50
2019-03-29T14:44:53.786Z,18.40
2019-03-29T14:47:22.890Z,18.40
2019-03-29T14:49:52.039Z,18.30
2019-03-29T14:52:21.432Z,18.10
2019-03-29T14:54:50.553Z,18.00
2019-03-29T14:57:19.651Z,18.00
2019-03-29T14:59:48.754Z,17.90
2019-03-29T15:02:17.974Z,17.70
2019-03-29T15:04:47.080Z,17.60
2019-03-29T15:07:16.242Z,17.50
2019-03-29T15:09:45.351Z,17.40
2019-03-29T15:12:14.842Z,17.40
2019-03-29T15:14:44.066Z,17.40
2019-03-29T15:17:13.520Z,17.40
2019-03-29T15:19:42.647Z,17.30
2019-03-29T15:22:11.750Z,17.10
2019-03-29T15:24:40.855Z,17.10
2019-03-29T15:27:09.970Z,17.00
2019-03-29T15:29:39.070Z,16.90
2019-03-29T15:32:08.198Z,16.80
2019-03-29T15:34:37.310Z,16.80
2019-03-29T15:37:10.065Z,16.80
2019-03-29T15:39:39.287Z,16.70
2019-03-29T15:42:08.710Z,16.60
2019-03-29T15:44:37.858Z,16.60
2019-03-29T15:47:06.993Z,16.50
2019-03-29T15:49:36.116Z,16.40
2019-03-29T15:52:05.625Z,16.40
2019-03-29T15:54:34.792Z,16.40
2019-03-29T15:57:03.930Z,16.40
2019-03-29T15:59:33.027Z,16.40
2019-03-29T16:02:02.130Z,16.30
2019-03-29T16:04:31.247Z,16.20
2019-03-29T16:07:00.342Z,16.30
2019-03-29T16:09:29.532Z,16.20
2019-03-29T16:11:58.715Z,16.20
2019-03-29T16:14:27.830Z,16.10
2019-03-29T16:16:56.966Z,16.10
2019-03-29T16:19:26.067Z,16.00
2019-03-29T16:21:55.490Z,16.10
2019-03-29T16:24:24.599Z,15.90
2019-03-29T16:26:53.707Z,15.80
2019-03-29T16:29:22.826Z,15.80
2019-03-29T16:31:51.926Z,15.70
2019-03-29T16:34:21.055Z,15.70
2019-03-29T16:36:50.155Z,15.70
2019-03-29T16:39:19.246Z,15.70
2019-03-29T16:41:48.394Z,15.60
2019-03-29T16:44:17.499Z,15.60
2019-03-29T16:46:46.617Z,15.50
2019-03-29T16:49:15.714Z,15.40
2019-03-29T16:51:44.818Z,15.30
2019-03-29T16:54:13.930Z,15.30
2019-03-29T16:56:43.083Z,15.20
2019-03-29T16:59:12.212Z,15.20
2019-03-29T17:01:41.357Z,15.20
2019-03-29T17:04:10.922Z,15.20
2019-03-29T17:06:40.070Z,15.20
2019-03-29T17:09:09.194Z,15.10
2019-03-29T17:11:38.322Z,15.00
2019-03-29T17:14:07.420Z,14.90
2019-03-29T17:16:36.554Z,14.90
2019-03-29T17:19:05.778Z,14.80
2019-03-29T17:21:35.069Z,14.70
2019-03-29T17:24:04.659Z,14.70
2019-03-29T17:26:34.126Z,14.60
2019-03-29T17:29:03.220Z,14.60
2019-03-29T17:31:32.755Z,14.50
2019-03-29T17:34:01.864Z,14.40
2019-03-29T17:36:30.990Z,14.40
2019-03-29T17:39:00.162Z,14.30
2019-03-29T17:41:29.270Z,14.30
2019-03-29T17:43:58.778Z,14.30
2019-03-29T17:46:27.878Z,14.10
2019-03-29T17:48:57.002Z,14.00
2019-03-29T17:51:26.106Z,13.90
2019-03-29T17:53:55.213Z,13.70
2019-03-29T17:56:24.376Z,13.70
2019-03-29T17:58:53.498Z,13.70
2019-03-29T18:01:22.626Z,13.60
2019-03-29T18:03:51.830Z,13.50
2019-03-29T18:06:20.939Z,13.50
2019-03-29T18:08:50.326Z,13.40
2019-03-29T18:11:19.426Z,13.40
2019-03-29T18:13:49.860Z,13.30
2019-03-29T18:16:29.900Z,13.30
2019-03-29T18:18:50.799Z,13.10
2019-03-29T18:21:20.538Z,13.10
2019-03-29T18:23:49.683Z,12.90
2019-03-29T18:26:18.906Z,12.90
2019-03-29T18:28:48.534Z,12.90
2019-03-29T18:31:17.674Z,12.80
2019-03-29T18:33:47.176Z,12.80
2019-03-29T18:36:16.459Z,12.80
2019-03-29T18:38:46.601Z,12.70
2019-03-29T18:41:16.127Z,12.60
2019-03-29T18:43:46.678Z,12.50
2019-03-29T18:46:15.815Z,12.40
2019-03-29T18:48:45.658Z,12.30
2019-03-29T18:51:15.049Z,12.20
2019-03-29T18:53:44.266Z,12.10
2019-03-29T18:56:13.569Z,12.00
2019-03-29T18:58:43.303Z,11.90
2019-03-29T19:01:12.507Z,11.70
2019-03-29T19:03:41.938Z,11.70
2019-03-29T19:06:11.748Z,11.60
2019-03-29T19:08:41.586Z,11.50
2019-03-29T19:11:10.705Z,11.40
2019-03-29T19:13:40.317Z,11.30
2019-03-29T19:16:10.246Z,11.20
2019-03-29T19:18:39.726Z,11.10
2019-03-29T19:21:08.923Z,11.10
2019-03-29T19:23:38.122Z,11.00
2019-03-29T19:26:07.234Z,10.90
2019-03-29T19:28:36.418Z,10.80
2019-03-29T19:31:05.663Z,10.80
2019-03-29T19:33:35.347Z,10.70
2019-03-29T19:36:05.028Z,10.60
2019-03-29T19:38:34.262Z,10.50
2019-03-29T19:41:03.394Z,10.40
2019-03-29T19:43:32.896Z,10.40
2019-03-29T19:46:02.995Z,10.30
2019-03-29T19:48:32.227Z,10.30
2019-03-29T19:51:01.321Z,10.20
2019-03-29T19:53:34.237Z,10.20
2019-03-29T19:56:01.965Z,10.20
2019-03-29T19:58:31.136Z,10.10
2019-03-29T20:01:00.259Z,10.10
2019-03-29T20:03:29.423Z,10.10
2019-03-29T20:05:58.574Z,10.00
2019-03-29T20:08:27.709Z,10.00
2019-03-29T20:10:56.818Z,10.00
2019-03-29T20:13:26.156Z,9.90
2019-03-29T20:15:55.767Z,9.70
2019-03-29T20:18:25.185Z,9.70
2019-03-29T20:20:54.338Z,9.60
2019-03-29T20:23:23.466Z,9.60
2019-03-29T20:25:52.768Z,9.60
2019-03-29T20:28:21.967Z,9.50
2019-03-29T20:30:51.473Z,9.40
2019-03-29T20:33:21.035Z,9.40
2019-03-29T20:35:50.735Z,9.40
2019-03-29T20:38:19.963Z,9.40
2019-03-29T20:40:49.223Z,9.40
2019-03-29T20:43:18.424Z,9.30
2019-03-29T20:45:47.569Z,9.20
2019-03-29T20:48:17.082Z,9.10
2019-03-29T20:50:46.202Z,9.00
2019-03-29T20:53:15.370Z,9.00
2019-03-29T20:55:44.462Z,8.90
2019-03-29T20:58:13.854Z,8.80
2019-03-29T21:00:43.050Z,8.80
2019-03-29T21:03:12.655Z,8.70
2019-03-29T21:05:41.898Z,8.60
2019-03-29T21:08:11.456Z,8.50
2019-03-29T21:10:54.573Z,8.50
2019-03-29T21:13:11.497Z,8.40
2019-03-29T21:15:40.972Z,8.30
2019-03-29T21:18:10.527Z,8.40
2019-03-29T21:20:39.678Z,8.30
2019-03-29T21:23:09.527Z,8.40
2019-03-29T21:25:38.694Z,8.30
2019-03-29T21:28:07.920Z,8.20
2019-03-29T21:30:37.034Z,8.10
2019-03-29T21:33:06.212Z,8.10
2019-03-29T21:35:35.390Z,8.00
2019-03-29T21:38:04.558Z,7.90
2019-03-29T21:40:33.650Z,7.90
2019-03-29T21:43:02.814Z,7.80
2019-03-29T21:45:31.917Z,7.80
2019-03-29T21:48:25.153Z,7.70
2019-03-29T21:50:31.858Z,7.60
2019-03-29T21:53:00.964Z,7.60
2019-03-29T21:55:30.458Z,7.50
2019-03-29T21:57:59.899Z,7.50
2019-03-29T22:00:31.384Z,7.40
2019-03-29T22:03:00.474Z,7.40
2019-03-29T22:05:29.914Z,7.30
2019-03-29T22:07:59.040Z,7.30
2019-03-29T22:10:28.267Z,7.30
2019-03-29T22:12:57.384Z,7.30
2019-03-29T22:15:26.477Z,7.20
2019-03-29T22:17:55.578Z,7.20
2019-03-29T22:20:24.711Z,7.10
2019-03-29T22:22:53.819Z,7.00
2019-03-29T22:25:22.975Z,7.00
2019-03-29T22:27:52.539Z,7.00
2019-03-29T22:30:21.742Z,6.90
2019-03-29T22:32:50.851Z,6.90
2019-03-29T22:35:19.990Z,6.90
2019-03-29T22:37:49.166Z,6.80
2019-03-29T22:40:18.315Z,6.80
2019-03-29T22:42:47.414Z,6.70
2019-03-29T22:45:16.883Z,6.70
2019-03-29T22:47:45.970Z,6.70
2019-03-29T22:50:15.066Z,6.60
2019-03-29T22:52:44.185Z,6.60
2019-03-29T22:55:13.279Z,6.60
2019-03-29T22:57:42.616Z,6.60
2019-03-29T23:00:15.108Z,6.50
